Time;durP1;ratioP1;P1;durP2;ratioP2;P2;SDS_P1;SDS_P2;PMS_P1;PMS_P2;Temp;Humidity;BMP_temperature;BMP_pressure;BME280_temperature;BME280_humidity;BME280_pressure;Samples;Min_cycle;Max_cycle;Signal;HPM_P1;HPM_P2
2021/12/05 06:01:06;;;;;;;0.95;0.80;;;;;;;-1.90;61.42;91069.44;6193357;22;20020;-76
2021/12/05 06:03:32;;;;;;;1.63;1.00;;;;;;;-1.85;62.01;91076.41;6239137;23;20098;-78
2021/12/05 06:06:05;;;;;;;0.77;0.77;;;;;;;-1.82;61.20;91074.13;6213045;23;19996;-76
2021/12/05 06:08:33;;;;;;;2.15;1.20;;;;;;;-1.78;61.16;91074.41;6213074;23;20038;-76
2021/12/05 06:11:02;;;;;;;1.00;0.90;;;;;;;-1.76;60.65;91080.06;6239872;22;20447;-76
2021/12/05 06:13:29;;;;;;;2.10;1.17;;;;;;;-1.76;60.66;91077.50;6239852;23;20465;-76
2021/12/05 06:15:55;;;;;;;1.20;1.05;;;;;;;-1.76;60.57;91074.94;6239900;23;20012;-76
2021/12/05 06:18:22;;;;;;;1.35;1.02;;;;;;;-1.75;59.74;91077.25;6239963;23;20065;-76
2021/12/05 06:20:52;;;;;;;0.73;0.70;;;;;;;-1.75;59.77;91071.38;6213098;22;20004;-76
2021/12/05 06:23:18;;;;;;;1.00;0.95;;;;;;;-1.71;58.57;91075.00;6188540;23;20032;-76
2021/12/05 06:26:03;;;;;;;5.35;1.40;;;;;;;-1.55;57.19;91079.19;6240375;23;20039;-75
2021/12/05 06:28:57;;;;;;;2.85;1.30;;;;;;;-1.53;58.01;91086.63;6214117;23;20012;-76
2021/12/05 06:31:46;;;;;;;3.00;1.60;;;;;;;-1.58;58.91;91084.81;6239711;22;20443;-76
2021/12/05 06:37:13;;;;;;;1.83;1.10;;;;;;;-1.63;58.93;91097.59;6240158;22;20347;-76
2021/12/05 06:47:39;;;;;;;1.40;1.10;;;;;;;-1.68;58.18;91105.28;6240518;22;20008;-75
2021/12/05 06:50:05;;;;;;;6.00;1.00;;;;;;;-1.63;57.27;91109.66;6240538;23;20335;-76
2021/12/05 06:52:31;;;;;;;1.10;0.93;;;;;;;-1.60;56.96;91102.28;6240600;22;20031;-75
2021/12/05 06:54:58;;;;;;;2.47;1.27;;;;;;;-1.57;57.08;91106.13;6240678;23;20339;-75
2021/12/05 06:57:24;;;;;;;3.08;1.52;;;;;;;-1.57;56.62;91101.00;6213808;23;20016;-75
2021/12/05 06:59:49;;;;;;;1.10;1.00;;;;;;;-1.53;56.65;91107.97;6240194;23;20488;-75
2021/12/05 07:02:19;;;;;;;0.70;0.70;;;;;;;-1.45;55.63;91116.97;6239932;22;20031;-75
2021/12/05 07:07:28;;;;;;;0.68;0.68;;;;;;;-1.27;55.30;91110.69;6239742;23;20042;-74
2021/12/05 07:09:54;;;;;;;2.50;1.60;;;;;;;-1.18;54.37;91111.75;6212854;22;20019;-75
2021/12/05 07:20:06;;;;;;;0.82;0.80;;;;;;;5.58;41.08;91094.47;6185153;22;20457;-76
2021/12/05 07:22:50;;;;;;;0.73;0.73;;;;;;;7.47;36.94;91096.50;6209441;22;20354;-76
2021/12/05 07:25:34;;;;;;;1.23;0.85;;;;;;;9.42;33.02;91090.81;6187217;22;20015;-76
2021/12/05 07:43:26;;;;;;;0.90;0.70;;;;;;;17.88;18.25;91069.53;6245157;23;20093;-80
2021/12/05 07:45:58;;;;;;;0.88;0.77;;;;;;;18.79;17.26;91069.03;6244348;22;20008;-79
2021/12/05 07:48:29;;;;;;;3.22;1.75;;;;;;;18.42;16.91;91073.34;6216416;22;20011;-80
2021/12/05 07:53:56;;;;;;;3.78;1.60;;;;;;;18.95;18.48;91076.69;6216921;23;20012;-80
2021/12/05 08:16:16;;;;;;;3.38;1.73;;;;;;;17.22;19.47;91088.47;6242687;22;20020;-77
2021/12/05 08:18:42;;;;;;;6.30;2.90;;;;;;;17.91;18.43;91099.78;6209138;23;20055;-79
2021/12/05 08:21:08;;;;;;;9.82;5.10;;;;;;;19.51;18.67;91089.41;6210480;22;20348;-77
2021/12/05 08:23:34;;;;;;;9.65;5.28;;;;;;;19.78;19.42;91091.03;6237521;23;20035;-76
2021/12/05 08:26:25;;;;;;;5.47;2.88;;;;;;;21.02;16.17;91088.75;6238421;23;19992;-79
2021/12/05 08:32:18;;;;;;;6.93;3.40;;;;;;;22.62;14.04;91092.44;6238124;22;20083;-76
2021/12/05 09:08:44;;;;;;;0.70;0.60;;;;;;;22.23;12.38;91092.75;6237849;22;20511;-77
2021/12/05 10:01:45;;;;;;;1.58;0.80;;;;;;;13.64;18.43;91108.28;6276818;22;20113;-79
2021/12/05 10:02:36;;;;;;;4.93;1.63;;;;;;;13.26;20.70;91104.28;6238697;22;20089;-77
2021/12/05 10:11:04;;;;;;;6.15;2.80;;;;;;;12.16;22.22;91098.22;6230802;22;20096;-77
2021/12/05 10:13:42;;;;;;;8.02;2.45;;;;;;;12.18;22.68;91095.25;6237912;23;20019;-77
2021/12/05 10:16:31;;;;;;;5.65;1.83;;;;;;;10.77;23.98;91094.41;6188832;23;20016;-77
2021/12/05 10:19:12;;;;;;;6.13;2.28;;;;;;;11.06;23.95;91090.16;6215599;23;20030;-77
2021/12/05 10:38:41;;;;;;;12.30;4.65;;;;;;;10.76;26.64;91077.16;6241647;22;20020;-78
2021/12/05 10:44:08;;;;;;;7.45;3.35;;;;;;;10.31;26.05;91072.56;6212573;22;20016;-77
2021/12/05 10:46:36;;;;;;;7.43;2.22;;;;;;;10.35;26.77;91078.69;6240007;23;20008;-77
2021/12/05 10:49:12;;;;;;;5.72;2.55;;;;;;;9.93;25.49;91071.56;6185067;23;20173;-76
2021/12/05 10:51:43;;;;;;;6.25;2.90;;;;;;;10.28;26.07;91062.72;6233467;22;20008;-76
2021/12/05 10:54:22;;;;;;;7.85;3.97;;;;;;;8.40;29.82;91074.69;6183109;23;20569;-76
2021/12/05 10:56:58;;;;;;;7.82;3.05;;;;;;;8.07;28.91;91063.91;6207954;23;20496;-75
2021/12/05 10:59:31;;;;;;;6.45;2.88;;;;;;;8.43;30.34;91066.25;6233641;23;20289;-75
2021/12/05 11:02:04;;;;;;;4.53;2.20;;;;;;;8.86;26.90;91064.69;6206785;22;20012;-76
2021/12/05 11:04:32;;;;;;;7.95;3.53;;;;;;;8.26;29.56;91059.19;6235607;23;20020;-76
2021/12/05 11:07:10;;;;;;;5.72;2.03;;;;;;;8.44;27.79;91059.19;6233842;23;20023;-77
2021/12/05 11:09:39;;;;;;;7.63;3.70;;;;;;;8.67;29.13;91049.34;6235929;23;20008;-77
2021/12/05 11:12:12;;;;;;;7.05;2.80;;;;;;;8.58;29.04;91051.19;6208705;22;20497;-79
2021/12/05 11:14:42;;;;;;;6.80;3.00;;;;;;;8.49;29.49;91057.22;6237454;23;20490;-77
2021/12/05 11:17:13;;;;;;;10.27;2.00;;;;;;;8.05;27.94;91053.78;6215471;23;20035;-78
2021/12/05 11:19:42;;;;;;;13.45;5.57;;;;;;;7.80;33.13;91036.28;6215384;23;20018;-78
2021/12/05 11:22:10;;;;;;;6.57;3.00;;;;;;;7.85;30.55;91049.13;6239891;22;20008;-79
2021/12/05 11:24:43;;;;;;;7.22;2.42;;;;;;;8.42;29.19;91049.09;6213142;23;20020;-79
2021/12/05 11:27:22;;;;;;;4.80;2.08;;;;;;;8.18;29.78;91051.34;6239983;23;20102;-79
2021/12/05 11:30:10;;;;;;;9.40;2.60;;;;;;;8.66;28.27;91045.22;6210395;23;20112;-80
2021/12/05 11:33:13;;;;;;;4.75;2.00;;;;;;;9.03;27.27;91037.78;6212687;22;20443;-79
2021/12/05 11:35:39;;;;;;;;;;;;;;;8.81;26.85;91031.69;6211443;23;20008;-79
2021/12/05 11:38:05;;;;;;;2.85;1.30;;;;;;;9.68;26.56;91026.19;6211546;23;19907;-80
2021/12/05 11:40:50;;;;;;;4.75;2.00;;;;;;;10.21;24.96;91030.00;6210032;22;20020;-78
2021/12/05 11:43:30;;;;;;;5.38;1.50;;;;;;;10.39;24.77;91024.66;6212031;23;20040;-78
2021/12/05 11:45:57;;;;;;;1.92;1.00;;;;;;;10.55;24.03;91023.00;6213183;23;20008;-79
2021/12/05 11:48:54;;;;;;;1.50;1.05;;;;;;;11.02;23.38;91007.00;6188120;22;20338;-78
2021/12/05 11:51:34;;;;;;;2.80;1.00;;;;;;;11.18;21.52;91009.00;6212288;22;20039;-79
2021/12/05 11:54:13;;;;;;;5.88;1.95;;;;;;;10.33;23.45;91007.63;6240483;23;20064;-77
2021/12/05 11:57:03;;;;;;;4.10;1.60;;;;;;;10.85;23.45;91012.41;6213946;23;20016;-78
2021/12/05 11:59:28;;;;;;;4.70;2.20;;;;;;;10.74;24.76;91006.03;6240391;23;20022;-78
2021/12/05 12:02:03;;;;;;;6.10;2.90;;;;;;;11.01;25.15;91004.69;6209393;22;20513;-75
2021/12/05 12:04:47;;;;;;;4.05;1.00;;;;;;;11.52;22.14;91001.84;6239564;23;20015;-77
2021/12/05 12:07:36;;;;;;;8.40;3.30;;;;;;;11.66;21.68;90994.41;6240792;23;20027;-78
2021/12/05 12:10:16;;;;;;;4.65;1.50;;;;;;;11.26;22.45;91005.53;6242853;23;20069;-79
2021/12/05 12:12:46;;;;;;;1.08;0.68;;;;;;;11.90;21.17;90991.03;6212044;23;20020;-79
2021/12/05 12:15:14;;;;;;;1.40;0.60;;;;;;;12.20;20.52;90991.50;6189227;22;20011;-77
2021/12/05 12:17:40;;;;;;;1.13;0.70;;;;;;;12.61;20.04;90992.28;6215305;23;20482;-78
2021/12/05 12:20:11;;;;;;;0.65;0.55;;;;;;;12.80;19.45;90985.63;6168846;22;20037;-78
2021/12/05 12:22:39;;;;;;;1.38;0.80;;;;;;;12.99;18.85;90985.75;6196254;23;20031;-78
2021/12/05 12:25:12;;;;;;;0.77;0.60;;;;;;;11.92;19.95;90983.59;6248700;23;20008;-79
2021/12/05 12:27:44;;;;;;;4.88;2.15;;;;;;;10.95;25.06;90988.44;6222566;23;20008;-79
2021/12/05 12:30:28;;;;;;;6.72;2.08;;;;;;;11.07;23.02;90987.69;6227329;22;20053;-79
2021/12/05 12:33:01;;;;;;;2.75;1.20;;;;;;;10.91;22.73;90982.31;6223375;23;20065;-79
2021/12/05 12:35:29;;;;;;;2.83;1.20;;;;;;;10.74;22.20;90982.50;6238534;23;20138;-77
2021/12/05 12:38:07;;;;;;;2.55;1.08;;;;;;;11.21;22.98;90987.38;6186924;23;20004;-78
2021/12/05 12:40:45;;;;;;;2.10;1.10;;;;;;;11.49;21.22;90982.28;6242561;22;20343;-77
2021/12/05 12:43:56;;;;;;;2.15;1.00;;;;;;;11.84;20.99;90977.38;6186741;22;20016;-78
2021/12/05 12:46:28;;;;;;;1.13;0.90;;;;;;;11.91;21.14;90982.09;6185190;23;20050;-77
2021/12/05 12:49:14;;;;;;;1.65;0.95;;;;;;;10.07;21.48;90969.34;6209466;22;20011;-76
2021/12/05 12:51:59;;;;;;;1.67;0.98;;;;;;;11.25;22.26;90969.94;6237003;22;20009;-77
2021/12/05 12:54:43;;;;;;;2.78;0.95;;;;;;;11.24;21.26;90968.44;6238363;23;20008;-78
2021/12/05 12:57:16;;;;;;;5.05;1.65;;;;;;;10.21;23.56;90964.63;6211873;23;20008;-78
2021/12/05 13:00:03;;;;;;;2.67;1.10;;;;;;;10.99;22.32;90970.25;6213067;23;20020;-78
2021/12/05 13:11:23;;;;;;;1.75;0.80;;;;;;;10.77;22.34;90960.94;6242256;22;20447;-77
2021/12/05 13:14:00;;;;;;;0.57;0.55;;;;;;;10.98;20.81;90969.47;6217634;23;20019;-78
2021/12/05 13:16:31;;;;;;;0.88;0.70;;;;;;;11.11;20.31;90966.88;6216589;23;20012;-78
2021/12/05 13:19:05;;;;;;;1.17;0.70;;;;;;;10.87;21.28;90970.97;6243947;23;20012;-77
2021/12/05 13:21:39;;;;;;;0.68;0.68;;;;;;;11.20;21.03;90972.78;6214103;22;20092;-78
2021/12/05 13:24:26;;;;;;;2.63;1.10;;;;;;;10.65;22.35;90966.91;6213957;23;20012;-77
2021/12/05 13:27:09;;;;;;;1.58;0.80;;;;;;;8.75;24.02;90981.50;6211955;23;20012;-77
2021/12/05 13:29:49;;;;;;;3.85;1.70;;;;;;;8.73;24.46;90975.06;6240827;23;20011;-80
2021/12/05 13:32:25;;;;;;;1.92;0.85;;;;;;;8.85;24.92;90971.81;6247146;22;20476;-79
2021/12/05 13:34:54;;;;;;;2.35;1.25;;;;;;;9.00;22.95;90967.94;6217957;23;20501;-77
2021/12/05 13:37:27;;;;;;;1.77;0.93;;;;;;;9.18;23.82;90967.53;6217707;23;20004;-78
2021/12/05 13:40:13;;;;;;;1.10;0.75;;;;;;;10.06;22.91;90967.06;6246808;23;20323;-78
2021/12/05 13:43:05;;;;;;;1.05;0.70;;;;;;;10.46;21.35;90969.22;6217810;23;20049;-79
2021/12/05 13:45:41;;;;;;;0.82;0.77;;;;;;;10.87;21.02;90967.59;6217676;23;20016;-79
2021/12/05 13:48:15;;;;;;;2.28;0.70;;;;;;;11.25;20.67;90969.94;6217584;22;20012;-81
2021/12/05 13:50:50;;;;;;;1.38;0.68;;;;;;;10.34;21.80;90972.56;6218622;22;20004;-79
2021/12/05 13:53:22;;;;;;;3.70;1.13;;;;;;;9.91;21.99;90978.84;6219290;23;20012;-82
2021/12/05 13:55:54;;;;;;;3.45;1.20;;;;;;;9.51;22.97;90979.25;6245408;23;20008;-80
2021/12/05 13:58:36;;;;;;;2.05;1.00;;;;;;;9.24;23.50;90983.06;6219567;23;20094;-78
2021/12/05 14:01:08;;;;;;;1.88;0.93;;;;;;;9.54;22.87;90978.59;6218216;22;20012;-77
2021/12/05 14:03:52;;;;;;;0.68;0.63;;;;;;;9.53;23.10;90977.09;6215021;23;20019;-79
2021/12/05 14:06:41;;;;;;;2.00;1.10;;;;;;;9.53;22.28;90970.00;6241597;23;20015;-77
2021/12/05 14:09:19;;;;;;;5.25;1.20;;;;;;;9.32;23.86;90974.41;6245128;23;20012;-77
2021/12/05 14:12:13;;;;;;;1.50;0.90;;;;;;;9.52;22.75;90978.16;6222493;22;20015;-79
2021/12/05 14:14:45;;;;;;;0.80;0.80;;;;;;;9.83;23.37;90979.66;6246883;23;20009;-77
2021/12/05 14:17:24;;;;;;;1.65;0.90;;;;;;;10.03;22.71;90984.13;6216824;23;20355;-77
2021/12/05 14:20:04;;;;;;;1.70;1.00;;;;;;;9.72;22.88;90981.88;6240661;23;20019;-77
2021/12/05 14:22:32;;;;;;;0.95;0.85;;;;;;;9.78;22.40;90980.63;6242408;22;20102;-78
2021/12/05 14:25:01;;;;;;;1.63;0.82;;;;;;;9.86;22.51;90989.47;6212863;22;20000;-77
2021/12/05 14:27:32;;;;;;;1.65;0.80;;;;;;;9.35;22.95;90987.59;6212060;23;20015;-77
2021/12/05 14:29:59;;;;;;;1.10;0.77;;;;;;;9.97;23.33;90998.47;6238512;23;20034;-77
2021/12/05 14:32:34;;;;;;;0.80;0.70;;;;;;;10.23;22.40;90990.47;6210976;22;20010;-77
2021/12/05 14:35:04;;;;;;;3.80;0.80;;;;;;;10.48;23.99;90998.44;6211010;23;20008;-77
2021/12/05 14:37:33;;;;;;;5.18;0.82;;;;;;;10.66;24.66;90996.44;6240272;23;20012;-78
2021/12/05 14:40:35;;;;;;;7.85;0.98;;;;;;;10.81;23.91;90998.47;6237127;23;20039;-78
2021/12/05 14:43:08;;;;;;;1.52;0.75;;;;;;;10.32;21.72;90993.03;6210476;23;20038;-78
2021/12/05 14:45:52;;;;;;;1.55;0.88;;;;;;;9.32;22.32;90993.47;6211993;23;20083;-77
2021/12/05 14:48:18;;;;;;;0.50;0.50;;;;;;;8.82;22.48;90996.69;6239018;23;20019;-78
2021/12/05 14:51:04;;;;;;;0.73;0.55;;;;;;;8.11;23.26;91003.03;6240829;22;19996;-77
2021/12/05 14:53:30;;;;;;;0.73;0.60;;;;;;;7.75;23.91;91002.56;6241527;23;20012;-77
2021/12/05 14:55:58;;;;;;;1.20;0.73;;;;;;;7.13;24.54;91003.44;6212563;23;20026;-77
2021/12/05 14:58:26;;;;;;;2.15;1.15;;;;;;;6.93;26.37;91002.13;6240728;23;20008;-78
2021/12/05 15:00:55;;;;;;;1.48;1.02;;;;;;;6.78;27.56;91011.09;6189524;22;20085;-78
2021/12/05 15:03:25;;;;;;;1.95;1.13;;;;;;;6.59;27.78;91017.25;6214057;23;20523;-78
2021/12/05 15:05:57;;;;;;;1.27;0.88;;;;;;;6.25;25.67;91015.19;6214815;23;20343;-77
2021/12/05 15:08:25;;;;;;;4.22;1.73;;;;;;;6.12;28.42;91021.22;6214112;23;20515;-78
2021/12/05 15:10:56;;;;;;;5.38;1.70;;;;;;;6.03;28.94;91027.13;6240683;22;20022;-77
2021/12/05 15:13:22;;;;;;;3.08;1.70;;;;;;;5.84;30.71;91031.66;6239645;23;20466;-76
2021/12/05 15:15:49;;;;;;;4.15;1.50;;;;;;;5.71;31.06;91025.41;6209601;23;20045;-77
2021/12/05 15:18:28;;;;;;;3.55;1.92;;;;;;;5.49;28.82;91028.69;6236366;23;20012;-77
2021/12/05 15:20:55;;;;;;;5.22;2.28;;;;;;;5.36;28.88;91039.88;6237023;22;20008;-76
2021/12/05 15:23:27;;;;;;;3.20;1.80;;;;;;;5.26;29.82;91045.25;6237124;23;20523;-76
2021/12/05 15:25:53;;;;;;;3.88;2.00;;;;;;;5.10;30.80;91047.38;6236892;23;20016;-76
2021/12/05 15:28:18;;;;;;;3.70;1.80;;;;;;;5.03;30.70;91044.38;6236498;23;20045;-76
2021/12/05 15:30:47;;;;;;;5.55;2.38;;;;;;;4.89;30.92;91052.91;6210846;22;20015;-77
2021/12/05 15:33:20;;;;;;;6.70;2.63;;;;;;;4.71;31.04;91054.50;6236498;23;20445;-77
2021/12/05 15:35:47;;;;;;;0.80;0.80;;;;;;;4.60;30.02;91063.50;6238077;23;20008;-76
2021/12/05 15:38:24;;;;;;;1.42;0.98;;;;;;;4.53;30.30;91065.69;6236365;23;20001;-76
2021/12/05 15:40:54;;;;;;;0.82;0.70;;;;;;;4.44;29.84;91067.41;6237693;22;20061;-78
2021/12/05 15:43:24;;;;;;;1.27;0.80;;;;;;;4.45;30.33;91068.91;6238129;23;20024;-77
2021/12/05 15:45:52;;;;;;;7.47;3.03;;;;;;;4.33;31.31;91066.78;6210469;23;20023;-76
2021/12/05 15:48:33;;;;;;;12.25;3.72;;;;;;;4.23;31.43;91072.84;6237076;23;20008;-75
2021/12/05 15:51:00;;;;;;;5.53;2.10;;;;;;;4.09;32.98;91069.44;6186496;22;20008;-77
2021/12/05 15:53:27;;;;;;;5.05;1.70;;;;;;;3.97;32.86;91082.81;6236665;23;20007;-77
2021/12/05 15:55:59;;;;;;;8.38;4.00;;;;;;;3.83;35.08;91084.53;6210806;23;20408;-76
2021/12/05 15:58:39;;;;;;;16.55;5.40;;;;;;;3.64;35.80;91082.69;6236747;23;20062;-76
2021/12/05 16:01:12;;;;;;;38.45;13.45;;;;;;;3.50;35.03;91087.78;6237111;22;20065;-78
2021/12/05 16:03:50;;;;;;;47.00;17.25;;;;;;;3.34;34.69;91089.75;6237304;23;20343;-77
2021/12/05 16:06:19;;;;;;;36.20;12.68;;;;;;;3.25;34.74;91093.25;6210509;23;20046;-77
2021/12/05 16:09:12;;;;;;;16.08;6.88;;;;;;;3.20;33.58;91093.28;6238351;23;20000;-77
2021/12/05 16:11:38;;;;;;;9.73;3.25;;;;;;;3.18;34.43;91093.56;6213505;22;20016;-77
2021/12/05 16:14:35;;;;;;;10.05;4.45;;;;;;;3.12;34.33;91103.19;6239122;23;20381;-77
2021/12/05 16:17:01;;;;;;;8.82;3.50;;;;;;;3.11;33.83;91104.25;6212944;23;20343;-77
2021/12/05 16:19:30;;;;;;;11.10;4.30;;;;;;;3.03;33.71;91104.06;6163652;23;20006;-77
2021/12/05 16:21:55;;;;;;;6.55;2.95;;;;;;;2.99;33.30;91110.81;6189284;22;20024;-77
2021/12/05 16:24:25;;;;;;;15.23;8.68;;;;;;;2.97;33.07;91105.91;6213305;23;20475;-77
2021/12/05 16:26:52;;;;;;;7.65;3.05;;;;;;;2.97;33.17;91118.06;6211871;23;20091;-77
2021/12/05 16:29:22;;;;;;;2.75;1.65;;;;;;;2.90;32.52;91119.19;6237728;23;20011;-79
2021/12/05 16:31:53;;;;;;;4.15;1.52;;;;;;;2.89;32.56;91116.84;6210526;22;20544;-77
2021/12/05 16:34:22;;;;;;;5.57;1.95;;;;;;;2.94;32.81;91124.56;6238557;23;20008;-76
2021/12/05 16:36:54;;;;;;;9.70;3.30;;;;;;;2.88;33.21;91125.63;6212207;23;20490;-77
2021/12/05 16:39:32;;;;;;;4.65;2.58;;;;;;;2.90;32.67;91121.75;6210895;23;20381;-77
2021/12/05 16:42:05;;;;;;;5.80;2.50;;;;;;;2.81;33.01;91123.38;6211979;22;20012;-77
2021/12/05 16:44:37;;;;;;;7.40;2.97;;;;;;;2.74;34.06;91132.47;6242158;23;20012;-77
2021/12/05 16:47:17;;;;;;;4.78;2.63;;;;;;;2.65;34.54;91135.63;6240430;23;20095;-77
2021/12/05 16:49:46;;;;;;;6.78;3.13;;;;;;;2.54;34.84;91139.34;6242080;23;20458;-78
2021/12/05 16:52:24;;;;;;;3.00;1.23;;;;;;;2.53;33.90;91145.56;6214516;22;20547;-77
2021/12/05 16:55:02;;;;;;;4.68;1.90;;;;;;;2.49;33.99;91147.13;6214724;23;20017;-78
2021/12/05 16:57:34;;;;;;;5.78;2.50;;;;;;;2.44;34.25;91149.75;6239272;23;20020;-78
2021/12/05 17:00:12;;;;;;;7.38;2.65;;;;;;;2.41;34.29;91155.44;6237951;23;20435;-78
2021/12/05 17:02:51;;;;;;;5.40;2.13;;;;;;;2.37;34.11;91155.22;6242243;23;20152;-77
2021/12/05 17:05:22;;;;;;;9.98;2.17;;;;;;;2.37;34.35;91159.63;6238214;23;20061;-78
2021/12/05 17:07:55;;;;;;;10.35;4.10;;;;;;;2.28;34.60;91152.44;6239247;23;20016;-78
2021/12/05 17:10:20;;;;;;;7.68;3.65;;;;;;;2.25;35.34;91157.34;6211629;22;20396;-78
2021/12/05 17:12:49;;;;;;;6.00;2.53;;;;;;;2.16;35.68;91149.41;6213064;22;20000;-78
2021/12/05 17:15:19;;;;;;;4.70;2.13;;;;;;;2.13;35.73;91157.69;6240889;23;20008;-81
2021/12/05 17:17:46;;;;;;;10.35;2.65;;;;;;;2.06;35.55;91157.19;6240413;23;20008;-79
2021/12/05 17:20:31;;;;;;;5.95;2.00;;;;;;;2.08;36.11;91168.03;6213721;22;20339;-79
2021/12/05 17:22:56;;;;;;;3.83;1.92;;;;;;;2.03;35.65;91171.41;6239786;23;20507;-79
2021/12/05 17:25:34;;;;;;;4.30;1.90;;;;;;;1.98;35.73;91173.25;6186040;23;20031;-78
2021/12/05 17:28:07;;;;;;;7.18;2.40;;;;;;;1.92;35.66;91174.31;6211476;23;20012;-77
2021/12/05 17:30:35;;;;;;;3.50;1.50;;;;;;;1.88;35.53;91174.81;6239840;22;20008;-78
2021/12/05 17:33:01;;;;;;;1.35;1.00;;;;;;;1.97;35.04;91174.28;6214661;23;20053;-78
2021/12/05 17:35:29;;;;;;;4.57;1.90;;;;;;;1.94;35.75;91175.59;6211857;23;20470;-79
2021/12/05 17:37:56;;;;;;;3.63;1.77;;;;;;;1.90;35.57;91176.38;6213683;23;20500;-78
2021/12/05 17:40:22;;;;;;;6.10;3.30;;;;;;;1.85;36.09;91184.94;6239034;22;20008;-77
2021/12/05 17:42:48;;;;;;;5.72;3.17;;;;;;;1.80;36.18;91183.13;6182665;23;20022;-79
2021/12/05 17:45:16;;;;;;;3.55;1.92;;;;;;;1.76;36.11;91187.28;6210660;22;20849;-78
2021/12/05 17:47:43;;;;;;;5.13;2.78;;;;;;;1.73;36.51;91187.78;6211685;23;20036;-79
2021/12/05 17:50:19;;;;;;;7.30;2.92;;;;;;;1.72;36.81;91186.25;6212038;23;20083;-79
2021/12/05 17:52:47;;;;;;;4.93;2.55;;;;;;;1.64;36.60;91187.56;6238854;23;20012;-77
2021/12/05 17:55:22;;;;;;;5.80;2.00;;;;;;;1.61;36.98;91190.66;6186300;23;20007;-76
2021/12/05 17:57:56;;;;;;;8.13;2.78;;;;;;;1.55;36.79;91191.72;6238757;23;20391;-77
2021/12/05 18:00:44;;;;;;;4.72;1.92;;;;;;;1.50;37.70;91201.28;6237458;22;20013;-77
2021/12/05 18:03:13;;;;;;;7.82;2.70;;;;;;;1.50;36.67;91201.28;6237127;23;20053;-78
2021/12/05 18:05:43;;;;;;;10.13;2.95;;;;;;;1.49;37.58;91210.84;6211474;23;20444;-77
2021/12/05 18:08:11;;;;;;;11.27;3.90;;;;;;;1.41;37.76;91212.13;6212283;23;20386;-77
2021/12/05 18:10:43;;;;;;;7.75;2.63;;;;;;;1.37;37.96;91218.81;6238322;22;19998;-77
2021/12/05 18:13:11;;;;;;;7.50;2.67;;;;;;;1.34;37.59;91216.00;6240386;23;20381;-77
2021/12/05 18:15:45;;;;;;;6.78;2.65;;;;;;;1.30;38.03;91220.13;6241261;23;19996;-78
2021/12/05 18:18:11;;;;;;;4.25;1.80;;;;;;;1.25;38.25;91233.81;6187105;23;20012;-79
2021/12/05 18:20:37;;;;;;;8.70;2.63;;;;;;;1.22;37.52;91224.03;6238941;22;20034;-77
2021/12/05 18:23:05;;;;;;;7.75;2.28;;;;;;;1.20;38.36;91220.94;6241001;23;20016;-79
2021/12/05 18:25:33;;;;;;;4.85;1.77;;;;;;;1.21;38.00;91232.78;6239997;23;20000;-78
2021/12/05 18:27:58;;;;;;;5.97;2.10;;;;;;;1.21;38.05;91227.63;6239780;23;20012;-77
2021/12/05 18:30:26;;;;;;;12.00;4.47;;;;;;;1.20;38.17;91231.25;6211616;22;20000;-78
2021/12/05 18:32:53;;;;;;;24.27;7.63;;;;;;;1.19;38.28;91229.69;6238795;23;20108;-77
2021/12/05 18:35:19;;;;;;;17.98;5.95;;;;;;;1.18;38.21;91239.22;6211130;22;20042;-78
2021/12/05 18:37:48;;;;;;;11.30;4.60;;;;;;;1.13;38.54;91238.47;6236633;23;20065;-78
2021/12/05 18:40:15;;;;;;;21.50;9.15;;;;;;;1.15;38.42;91238.97;6237881;22;20003;-78
2021/12/05 18:42:42;;;;;;;9.85;4.13;;;;;;;1.15;37.65;91244.13;6239788;23;20064;-78
2021/12/05 18:45:10;;;;;;;18.33;7.28;;;;;;;1.16;38.01;91245.69;6212280;23;20015;-78
2021/12/05 18:47:36;;;;;;;11.38;4.70;;;;;;;1.16;37.55;91240.53;6212287;23;20541;-78
2021/12/05 18:50:04;;;;;;;31.23;10.05;;;;;;;1.14;37.81;91243.34;6237943;23;20012;-80
2021/12/05 18:52:34;;;;;;;15.65;6.72;;;;;;;1.13;38.56;91246.19;6212586;22;20032;-78
2021/12/05 18:55:00;;;;;;;9.88;3.80;;;;;;;1.11;38.18;91243.88;6212856;23;20004;-79
2021/12/05 18:57:26;;;;;;;15.75;7.50;;;;;;;1.08;37.94;91248.75;6213373;23;20020;-79
2021/12/05 19:00:08;;;;;;;10.82;5.45;;;;;;;1.07;37.94;91252.38;6239497;23;20316;-78
2021/12/05 19:05:29;;;;;;;7.57;2.60;;;;;;;0.99;38.94;91251.88;6212262;22;20098;-78
2021/12/05 19:08:16;;;;;;;8.23;4.18;;;;;;;0.93;39.00;91254.69;6238987;23;20061;-78
2021/12/05 19:13:27;;;;;;;2.58;1.40;;;;;;;0.90;38.58;91262.94;6238934;22;20080;-80
2021/12/05 19:15:53;;;;;;;4.90;2.03;;;;;;;0.88;38.88;91268.34;6240385;23;20000;-77
2021/12/05 19:18:19;;;;;;;7.57;3.78;;;;;;;0.81;40.25;91260.88;6238743;23;20012;-77
2021/12/05 19:20:45;;;;;;;12.77;5.40;;;;;;;0.77;40.15;91269.38;6210214;22;20019;-78
2021/12/05 19:23:11;;;;;;;12.75;3.90;;;;;;;0.71;39.45;91268.56;6210776;23;20320;-77
2021/12/05 19:25:40;;;;;;;7.53;3.53;;;;;;;0.71;39.23;91265.25;6159986;23;20072;-77
2021/12/05 19:28:08;;;;;;;7.07;2.72;;;;;;;0.70;39.22;91272.19;6237336;23;20012;-76
2021/12/05 19:30:38;;;;;;;5.72;2.17;;;;;;;0.75;38.54;91274.00;6211502;22;20040;-78
2021/12/05 19:33:06;;;;;;;4.90;2.20;;;;;;;0.80;38.60;91269.63;6238482;23;20019;-78
2021/12/05 19:35:32;;;;;;;4.03;2.33;;;;;;;0.86;38.40;91267.84;6215816;23;20042;-77
2021/12/05 19:38:00;;;;;;;3.03;1.42;;;;;;;0.92;38.13;91277.09;6238016;23;20020;-77
2021/12/05 19:40:26;;;;;;;5.15;2.20;;;;;;;0.96;37.95;91274.78;6186897;22;20409;-76
2021/12/05 19:42:53;;;;;;;2.35;1.20;;;;;;;0.99;38.16;91277.63;6236304;23;20039;-75
2021/12/05 19:45:20;;;;;;;2.72;1.38;;;;;;;0.99;37.99;91277.63;6237328;23;20004;-76
2021/12/05 19:47:47;;;;;;;4.68;1.40;;;;;;;0.98;38.00;91286.38;6210771;23;20100;-76
2021/12/05 19:50:15;;;;;;;2.78;1.38;;;;;;;0.97;38.12;91284.84;6211508;22;20442;-76
2021/12/05 19:52:41;;;;;;;4.93;1.60;;;;;;;0.97;38.03;91282.28;6236733;23;20019;-76
2021/12/05 19:55:08;;;;;;;4.07;1.70;;;;;;;0.97;38.27;91287.44;6237707;23;20004;-76
2021/12/05 19:57:35;;;;;;;8.23;1.70;;;;;;;0.96;37.75;91283.28;6210659;23;20012;-77
2021/12/05 20:00:06;;;;;;;2.47;1.30;;;;;;;0.97;38.47;91286.66;6237929;23;20036;-77
2021/12/05 20:02:42;;;;;;;2.20;1.02;;;;;;;0.98;38.50;91294.13;6237554;23;20099;-77
2021/12/05 20:05:10;;;;;;;1.77;1.13;;;;;;;1.00;38.23;91299.03;6211253;23;20008;-76
2021/12/05 20:07:37;;;;;;;3.40;1.67;;;;;;;1.02;37.48;91294.38;6237306;23;20006;-76
2021/12/05 20:10:07;;;;;;;1.38;1.05;;;;;;;1.07;37.79;91293.63;6238345;23;20061;-76
2021/12/05 20:12:32;;;;;;;2.38;1.08;;;;;;;1.08;37.46;91297.72;6211097;22;20359;-76
2021/12/05 20:14:58;;;;;;;2.15;1.00;;;;;;;1.07;37.74;91288.47;6236845;23;20004;-76
2021/12/05 20:17:24;;;;;;;1.25;1.00;;;;;;;1.06;37.73;91292.06;6238104;23;20022;-76
2021/12/05 20:19:51;;;;;;;1.30;0.88;;;;;;;1.14;38.26;91305.22;6236747;23;20016;-76
2021/12/05 20:22:17;;;;;;;1.35;0.80;;;;;;;1.09;37.54;91296.72;6237729;22;20012;-76
2021/12/05 20:24:45;;;;;;;2.20;1.00;;;;;;;1.08;37.16;91301.09;6237529;23;20071;-76
2021/12/05 20:27:10;;;;;;;1.95;0.93;;;;;;;1.11;37.16;91310.88;6237812;23;20008;-76
2021/12/05 20:29:37;;;;;;;0.95;0.73;;;;;;;1.15;37.78;91303.41;6237023;23;20340;-76
2021/12/05 20:32:03;;;;;;;0.85;0.75;;;;;;;1.15;37.69;91301.63;6210592;22;20108;-76
2021/12/05 20:34:30;;;;;;;1.80;0.80;;;;;;;1.15;37.71;91305.97;6186057;22;20444;-76
2021/12/05 20:36:57;;;;;;;1.35;0.80;;;;;;;1.13;37.96;91313.22;6187176;23;20366;-76
2021/12/05 20:39:23;;;;;;;1.25;0.70;;;;;;;1.16;38.13;91307.53;6184821;22;20019;-76
2021/12/05 20:41:49;;;;;;;0.65;0.65;;;;;;;1.12;38.24;91309.06;6237292;22;20020;-76
2021/12/05 20:44:15;;;;;;;1.30;0.90;;;;;;;1.07;38.40;91309.84;6237795;23;20000;-76
2021/12/05 20:46:41;;;;;;;0.68;0.68;;;;;;;1.01;38.92;91314.25;6209992;22;20095;-76
2021/12/05 20:49:08;;;;;;;0.63;0.63;;;;;;;0.98;39.19;91312.16;6236647;23;20001;-76
2021/12/05 20:51:36;;;;;;;2.17;0.90;;;;;;;0.93;39.14;91314.72;6237529;22;20100;-76
2021/12/05 20:54:03;;;;;;;1.92;1.00;;;;;;;0.89;39.99;91311.13;6184897;23;20008;-75
2021/12/05 20:56:30;;;;;;;1.63;0.80;;;;;;;0.86;39.70;91314.22;6210328;22;20019;-76
2021/12/05 20:58:56;;;;;;;1.15;1.00;;;;;;;0.83;39.74;91314.69;6210585;23;20453;-76
2021/12/05 21:01:22;;;;;;;1.50;0.95;;;;;;;0.80;39.52;91312.66;6230639;22;20026;-76
2021/12/05 21:03:48;;;;;;;1.25;0.77;;;;;;;0.80;39.36;91310.84;6230806;22;20010;-76
2021/12/05 21:06:15;;;;;;;1.50;0.82;;;;;;;0.77;39.83;91302.88;6367956;22;20034;-76
2021/12/05 21:08:42;;;;;;;0.60;0.57;;;;;;;0.72;40.75;91302.84;6366603;22;20002;-77